Terminal Aerodrome Forecast
Issued by NWS Tampa Bay Area, FL

Home | Current Version | Previous Version | Text Only | Print | Product List | Glossary On
Versions: 1 2 3 4 5 6 7 8 9 10 11 12 13 14
115
FTUS42 KTBW 270520
TAFSRQ
TAF
KSRQ 270520Z 2706/2806 07007KT P6SM SKC
     FM271500 09010KT P6SM FEW040
     FM271900 05008KT P6SM SCT040
     FM280100 07010KT P6SM FEW040=

USA.gov is the U.S. government's official web portal to all federal, state and local government web resources and services.